Time;durP1;ratioP1;P1;durP2;ratioP2;P2;SDS_P1;SDS_P2;PMS_P1;PMS_P2;Temp;Humidity;BMP_temperature;BMP_pressure;BME280_temperature;BME280_humidity;BME280_pressure;Samples;Min_cycle;Max_cycle;Signal;HPM_P1;HPM_P2
2022/03/13 00:01:42;;;;;;;;;;;5.10;78.30;;;;;;4876633;29;20427;-80
2022/03/13 00:04:09;;;;;;;;;;;5.00;78.10;;;;;;4862213;29;19932;-79
2022/03/13 00:06:38;;;;;;;;;;;5.00;78.40;;;;;;4857170;29;19971;-80
2022/03/13 00:09:06;;;;;;;;;;;5.00;78.40;;;;;;4875295;29;19928;-81
2022/03/13 00:11:34;;;;;;;;;;;5.00;78.30;;;;;;4873103;29;20018;-82
2022/03/13 00:14:05;;;;;;;;;;;5.00;78.40;;;;;;4860550;29;20415;-81
2022/03/13 00:16:33;;;;;;;;;;;4.90;78.60;;;;;;4875374;29;19942;-81
2022/03/13 00:19:00;;;;;;;;;;;5.00;78.30;;;;;;4876260;29;19931;-82
2022/03/13 00:21:27;;;;;;;;;;;4.90;78.70;;;;;;4879560;29;20195;-81
2022/03/13 00:23:55;;;;;;;;;;;4.80;78.80;;;;;;4861159;29;20401;-82
2022/03/13 00:26:22;;;;;;;;;;;4.80;78.80;;;;;;4868980;29;20472;-81
2022/03/13 00:28:50;;;;;;;;;;;4.80;78.60;;;;;;4873016;29;19928;-82
2022/03/13 00:31:17;;;;;;;;;;;4.80;78.40;;;;;;4873381;29;20403;-82
2022/03/13 00:33:44;;;;;;;;;;;4.70;78.40;;;;;;4871580;29;19929;-82
2022/03/13 00:36:11;;;;;;;;;;;4.70;78.30;;;;;;4875019;29;19947;-81
2022/03/13 00:38:38;;;;;;;;;;;4.70;78.40;;;;;;4874022;29;19928;-82
2022/03/13 00:41:05;;;;;;;;;;;4.70;78.50;;;;;;4874848;29;19992;-81
2022/03/13 00:43:32;;;;;;;;;;;4.60;78.50;;;;;;4873905;29;19932;-81
2022/03/13 00:46:00;;;;;;;;;;;4.60;78.30;;;;;;4873006;29;19970;-81
2022/03/13 00:48:28;;;;;;;;;;;4.60;78.50;;;;;;4874853;29;19934;-82
2022/03/13 00:50:55;;;;;;;;;;;4.50;78.60;;;;;;4876063;29;19928;-82
2022/03/13 00:53:22;;;;;;;;;;;4.50;78.60;;;;;;4878655;29;19934;-81
2022/03/13 00:55:49;;;;;;;;;;;4.50;78.70;;;;;;4874536;29;20010;-80
2022/03/13 00:58:16;;;;;;;;;;;4.50;78.60;;;;;;4873812;29;20311;-82
2022/03/13 01:00:43;;;;;;;;;;;4.50;77.90;;;;;;4860682;29;20404;-82
2022/03/13 01:03:18;;;;;;;;;;;4.50;78.50;;;;;;4873834;29;19927;-81
2022/03/13 01:05:45;;;;;;;;;;;4.40;78.40;;;;;;4876053;29;19935;-82
2022/03/13 01:08:12;;;;;;;;;;;4.40;78.90;;;;;;4877173;29;19942;-81
2022/03/13 01:10:39;;;;;;;;;;;4.40;77.70;;;;;;4875912;29;19985;-82
2022/03/13 01:13:05;;;;;;;;;;;4.30;78.10;;;;;;4873441;29;19935;-81
2022/03/13 01:15:33;;;;;;;;;;;4.30;78.10;;;;;;4861476;29;20447;-81
2022/03/13 01:17:59;;;;;;;;;;;4.30;78.00;;;;;;4878075;29;19931;-81
2022/03/13 01:20:28;;;;;;;;;;;4.30;78.10;;;;;;4869265;29;20370;-81
2022/03/13 01:22:54;;;;;;;;;;;4.20;77.90;;;;;;4860752;29;19935;-81
2022/03/13 01:25:25;;;;;;;;;;;4.20;77.90;;;;;;4876688;29;20312;-82
2022/03/13 01:27:53;;;;;;;;;;;4.20;77.70;;;;;;4858171;29;19950;-82
2022/03/13 01:30:20;;;;;;;;;;;4.20;78.00;;;;;;4872390;29;19932;-82
2022/03/13 01:32:52;;;;;;;;;;;4.20;77.90;;;;;;4870484;29;19936;-81
2022/03/13 01:35:20;;;;;;;;;;;4.10;77.90;;;;;;4872341;29;20102;-81
2022/03/13 01:37:48;;;;;;;;;;;4.10;77.70;;;;;;4875353;29;19943;-81
2022/03/13 01:40:19;;;;;;;;;;;4.10;77.60;;;;;;4876890;29;20404;-81
2022/03/13 01:42:47;;;;;;;;;;;4.10;77.40;;;;;;4870079;29;19931;-81
2022/03/13 01:45:16;;;;;;;;;;;4.10;77.50;;;;;;4868426;29;19942;-81
2022/03/13 01:47:43;;;;;;;;;;;4.10;77.00;;;;;;4866088;29;19959;-81
2022/03/13 01:50:10;;;;;;;;;;;4.10;77.10;;;;;;4870515;29;20316;-81
2022/03/13 01:52:39;;;;;;;;;;;4.00;76.90;;;;;;4869565;29;19967;-81
2022/03/13 01:55:08;;;;;;;;;;;4.00;77.00;;;;;;4871726;29;19992;-81
2022/03/13 01:57:37;;;;;;;;;;;4.00;77.00;;;;;;4868132;29;20023;-81
2022/03/13 02:00:07;;;;;;;;;;;4.00;77.10;;;;;;4868737;29;20026;-82
2022/03/13 02:02:44;;;;;;;;;;;4.00;76.90;;;;;;4872566;29;20026;-82
2022/03/13 02:05:19;;;;;;;;;;;4.00;76.60;;;;;;4868120;29;19983;-81
2022/03/13 02:07:46;;;;;;;;;;;3.90;76.70;;;;;;4855522;29;20351;-81
2022/03/13 02:10:14;;;;;;;;;;;3.90;76.50;;;;;;4874480;29;19946;-82
2022/03/13 02:12:41;;;;;;;;;;;3.90;76.80;;;;;;4871508;29;20293;-81
2022/03/13 02:15:08;;;;;;;;;;;3.90;76.20;;;;;;4873191;29;19928;-82
2022/03/13 02:17:35;;;;;;;;;;;3.80;76.40;;;;;;4869358;29;19936;-81
2022/03/13 02:20:03;;;;;;;;;;;3.80;75.70;;;;;;4869155;29;19935;-79
2022/03/13 02:22:30;;;;;;;;;;;3.80;76.10;;;;;;4867927;29;22293;-79
2022/03/13 02:24:59;;;;;;;;;;;3.80;76.40;;;;;;4873125;29;19927;-79
2022/03/13 02:27:28;;;;;;;;;;;3.80;76.20;;;;;;4866260;29;19940;-79
2022/03/13 02:29:56;;;;;;;;;;;3.70;76.00;;;;;;4871274;29;19932;-79
2022/03/13 02:32:23;;;;;;;;;;;3.70;76.20;;;;;;4867609;29;19928;-79
2022/03/13 02:34:50;;;;;;;;;;;3.70;75.70;;;;;;4872022;29;20040;-79
2022/03/13 02:37:19;;;;;;;;;;;3.60;75.30;;;;;;4869660;29;19936;-79
2022/03/13 02:39:46;;;;;;;;;;;3.60;74.70;;;;;;4869944;29;19935;-79
2022/03/13 02:42:14;;;;;;;;;;;3.60;74.50;;;;;;4871684;29;19974;-79
2022/03/13 02:44:41;;;;;;;;;;;3.50;74.80;;;;;;4854828;29;19936;-79
2022/03/13 02:47:08;;;;;;;;;;;3.50;74.80;;;;;;4872833;29;19971;-79
2022/03/13 02:49:35;;;;;;;;;;;3.50;74.80;;;;;;4890821;29;19927;-79
2022/03/13 02:52:03;;;;;;;;;;;3.40;74.60;;;;;;4895401;29;19919;-79
2022/03/13 02:54:31;;;;;;;;;;;3.40;75.10;;;;;;4863280;29;19935;-81
2022/03/13 02:56:58;;;;;;;;;;;3.50;75.00;;;;;;4876074;29;19932;-81
2022/03/13 02:59:27;;;;;;;;;;;3.40;75.00;;;;;;4872836;29;20540;-81
2022/03/13 03:01:54;;;;;;;;;;;3.30;74.50;;;;;;4867740;29;19932;-81
2022/03/13 03:04:24;;;;;;;;;;;3.30;74.70;;;;;;4867278;29;19928;-81
2022/03/13 03:06:52;;;;;;;;;;;3.30;74.90;;;;;;4866112;29;19935;-81
2022/03/13 03:09:19;;;;;;;;;;;3.20;74.50;;;;;;4867079;29;19942;-81
2022/03/13 03:11:46;;;;;;;;;;;3.20;74.40;;;;;;4868900;29;19935;-81
2022/03/13 03:14:14;;;;;;;;;;;3.10;74.10;;;;;;4870632;29;20600;-81
2022/03/13 03:16:42;;;;;;;;;;;3.10;74.40;;;;;;4867984;29;19988;-80
2022/03/13 03:19:09;;;;;;;;;;;3.00;74.80;;;;;;4869392;29;19928;-81
2022/03/13 03:21:38;;;;;;;;;;;3.00;74.50;;;;;;4868925;29;20034;-81
2022/03/13 03:24:15;;;;;;;;;;;3.00;74.80;;;;;;4856751;29;19970;-80
2022/03/13 03:26:42;;;;;;;;;;;2.90;74.80;;;;;;4870685;29;19935;-81
2022/03/13 03:29:09;;;;;;;;;;;2.90;75.20;;;;;;4867478;29;19936;-81
2022/03/13 03:31:39;;;;;;;;;;;2.80;75.00;;;;;;4869938;29;19938;-81
2022/03/13 03:34:09;;;;;;;;;;;2.90;75.40;;;;;;4862310;29;19932;-81
2022/03/13 03:36:39;;;;;;;;;;;2.80;75.50;;;;;;4851628;29;19934;-81
2022/03/13 03:39:06;;;;;;;;;;;2.80;76.40;;;;;;4867727;29;19965;-81
2022/03/13 03:41:33;;;;;;;;;;;2.80;75.90;;;;;;4867848;29;19932;-81
2022/03/13 03:44:00;;;;;;;;;;;2.70;75.90;;;;;;4869870;29;19943;-81
2022/03/13 03:46:27;;;;;;;;;;;2.70;76.00;;;;;;4866842;29;19934;-80
2022/03/13 03:48:54;;;;;;;;;;;2.70;76.20;;;;;;4874304;29;20417;-81
2022/03/13 03:51:22;;;;;;;;;;;2.70;76.40;;;;;;4869698;29;19927;-80
2022/03/13 03:53:49;;;;;;;;;;;2.70;76.50;;;;;;4866747;29;19936;-79
2022/03/13 03:56:16;;;;;;;;;;;2.70;76.50;;;;;;4870350;29;19979;-78
2022/03/13 03:58:43;;;;;;;;;;;2.60;76.50;;;;;;4874602;29;19939;-79
2022/03/13 04:01:10;;;;;;;;;;;2.60;76.40;;;;;;4871135;29;19935;-79
2022/03/13 04:03:38;;;;;;;;;;;2.60;76.50;;;;;;4871229;29;20407;-80
2022/03/13 04:06:05;;;;;;;;;;;2.60;76.50;;;;;;4870723;29;19935;-81
2022/03/13 04:08:33;;;;;;;;;;;2.60;75.90;;;;;;4868258;29;19964;-80
2022/03/13 04:11:01;;;;;;;;;;;2.50;75.80;;;;;;4847133;29;19928;-80
2022/03/13 04:13:28;;;;;;;;;;;2.50;75.90;;;;;;4865102;29;19951;-80
2022/03/13 04:15:55;;;;;;;;;;;2.50;75.80;;;;;;4869350;29;19928;-81
2022/03/13 04:18:22;;;;;;;;;;;2.50;75.50;;;;;;4864519;29;19939;-80
2022/03/13 04:20:50;;;;;;;;;;;2.50;75.50;;;;;;4866158;29;20000;-81
2022/03/13 04:23:17;;;;;;;;;;;2.40;75.40;;;;;;4870816;29;20383;-80
2022/03/13 04:25:46;;;;;;;;;;;2.40;75.30;;;;;;4873202;29;20427;-80
2022/03/13 04:28:12;;;;;;;;;;;2.40;75.40;;;;;;4872013;29;19931;-81
2022/03/13 04:30:40;;;;;;;;;;;2.40;75.40;;;;;;4873246;29;19948;-81
2022/03/13 04:33:07;;;;;;;;;;;2.40;75.20;;;;;;4870376;29;19928;-80
2022/03/13 04:35:34;;;;;;;;;;;2.30;75.20;;;;;;4867173;29;19934;-80
2022/03/13 04:38:01;;;;;;;;;;;2.30;75.20;;;;;;4869763;29;19932;-80
2022/03/13 04:40:28;;;;;;;;;;;2.30;75.10;;;;;;4860259;29;19952;-80
2022/03/13 04:42:56;;;;;;;;;;;2.30;75.40;;;;;;4870832;29;19935;-80
2022/03/13 04:45:26;;;;;;;;;;;2.30;75.40;;;;;;4876277;29;19967;-80
2022/03/13 04:47:53;;;;;;;;;;;2.20;75.30;;;;;;4868172;29;19967;-80
2022/03/13 04:50:20;;;;;;;;;;;2.20;75.30;;;;;;4870950;29;20324;-81
2022/03/13 04:52:47;;;;;;;;;;;2.20;75.10;;;;;;4871287;29;19927;-81
2022/03/13 04:55:14;;;;;;;;;;;2.20;75.20;;;;;;4870451;29;19935;-78
2022/03/13 04:57:41;;;;;;;;;;;2.20;75.20;;;;;;4858247;29;20415;-78
2022/03/13 05:00:11;;;;;;;;;;;2.20;75.30;;;;;;4867030;29;19944;-80
2022/03/13 05:02:38;;;;;;;;;;;2.20;75.40;;;;;;4873219;29;19934;-78
2022/03/13 05:05:05;;;;;;;;;;;2.20;75.30;;;;;;4861145;29;19970;-80
2022/03/13 05:07:32;;;;;;;;;;;2.10;75.30;;;;;;4861625;29;19992;-80
2022/03/13 05:09:59;;;;;;;;;;;2.10;75.40;;;;;;4867650;29;19984;-80
2022/03/13 05:12:29;;;;;;;;;;;2.10;75.50;;;;;;4868274;29;20428;-79
2022/03/13 05:14:56;;;;;;;;;;;2.10;75.20;;;;;;4854189;29;20027;-81
2022/03/13 05:17:24;;;;;;;;;;;2.10;75.20;;;;;;4859842;29;19992;-79
2022/03/13 05:19:51;;;;;;;;;;;2.10;75.10;;;;;;4869358;29;19936;-80
2022/03/13 05:22:18;;;;;;;;;;;2.00;75.00;;;;;;4875450;29;19928;-79
2022/03/13 05:24:46;;;;;;;;;;;2.00;75.10;;;;;;4868471;29;20289;-80
2022/03/13 05:27:12;;;;;;;;;;;2.00;75.30;;;;;;4868683;29;19936;-78
2022/03/13 05:29:39;;;;;;;;;;;2.00;75.30;;;;;;4867694;29;19935;-78
2022/03/13 05:32:07;;;;;;;;;;;2.00;75.10;;;;;;4856827;29;20301;-78
2022/03/13 05:34:35;;;;;;;;;;;2.00;75.10;;;;;;4853986;29;20381;-78
2022/03/13 05:37:02;;;;;;;;;;;2.00;75.00;;;;;;4867356;29;19928;-77
2022/03/13 05:39:30;;;;;;;;;;;1.90;74.90;;;;;;4868491;29;19928;-78
2022/03/13 05:41:59;;;;;;;;;;;1.90;74.80;;;;;;4854709;29;19935;-80
2022/03/13 05:44:26;;;;;;;;;;;1.90;74.60;;;;;;4853044;29;19935;-79
2022/03/13 05:46:52;;;;;;;;;;;1.90;74.70;;;;;;4858382;29;19935;-79
2022/03/13 05:49:19;;;;;;;;;;;1.90;74.70;;;;;;4876884;29;19931;-80
2022/03/13 05:51:48;;;;;;;;;;;1.90;74.80;;;;;;4869523;29;20594;-80
2022/03/13 05:54:15;;;;;;;;;;;1.90;74.80;;;;;;4873214;29;20019;-79
2022/03/13 05:56:42;;;;;;;;;;;1.80;74.90;;;;;;4866709;29;19935;-80
2022/03/13 05:59:09;;;;;;;;;;;1.80;75.00;;;;;;4872314;29;20007;-80
2022/03/13 06:01:37;;;;;;;;;;;1.80;75.10;;;;;;4864906;29;20460;-79
2022/03/13 06:04:04;;;;;;;;;;;1.80;75.00;;;;;;4874068;29;20022;-80
2022/03/13 06:06:33;;;;;;;;;;;1.80;75.00;;;;;;4862677;29;19935;-80
2022/03/13 06:09:01;;;;;;;;;;;1.80;74.90;;;;;;4847518;29;19928;-79
2022/03/13 06:11:28;;;;;;;;;;;1.80;74.90;;;;;;4867869;29;19928;-79
2022/03/13 06:13:55;;;;;;;;;;;1.70;74.80;;;;;;4853744;29;19936;-79
2022/03/13 06:16:24;;;;;;;;;;;1.70;74.90;;;;;;4853168;29;19954;-80
2022/03/13 06:18:51;;;;;;;;;;;1.70;74.80;;;;;;4873150;29;19942;-79
2022/03/13 06:21:17;;;;;;;;;;;1.70;74.90;;;;;;4868421;29;19927;-79
2022/03/13 06:23:44;;;;;;;;;;;1.70;74.90;;;;;;4866615;29;19927;-80
2022/03/13 06:26:13;;;;;;;;;;;1.70;75.00;;;;;;4869011;29;19938;-79
2022/03/13 06:28:40;;;;;;;;;;;1.70;75.00;;;;;;4872428;29;19928;-80
2022/03/13 06:31:10;;;;;;;;;;;1.70;75.10;;;;;;4853987;29;20030;-79
2022/03/13 06:33:37;;;;;;;;;;;1.60;74.90;;;;;;4870981;29;19958;-79
2022/03/13 06:36:05;;;;;;;;;;;1.60;75.70;;;;;;4855747;29;19927;-80
2022/03/13 06:38:32;;;;;;;;;;;1.60;75.20;;;;;;4872453;29;19979;-80
2022/03/13 06:40:58;;;;;;;;;;;1.60;75.30;;;;;;4867581;29;19932;-80
2022/03/13 06:43:27;;;;;;;;;;;1.70;75.40;;;;;;4857219;29;20011;-80
2022/03/13 06:45:53;;;;;;;;;;;1.60;75.40;;;;;;4870139;29;20393;-80
2022/03/13 06:48:21;;;;;;;;;;;1.60;75.30;;;;;;4856067;29;20381;-79
2022/03/13 06:50:50;;;;;;;;;;;1.60;75.40;;;;;;4871490;29;20019;-77
2022/03/13 06:53:17;;;;;;;;;;;1.60;75.40;;;;;;4881204;29;19981;-80
2022/03/13 06:55:43;;;;;;;;;;;1.60;75.50;;;;;;4884388;29;19928;-79
2022/03/13 06:58:11;;;;;;;;;;;1.60;75.40;;;;;;4872019;29;19928;-79
2022/03/13 07:00:39;;;;;;;;;;;1.60;75.50;;;;;;4875406;29;20036;-79
2022/03/13 07:03:06;;;;;;;;;;;1.60;75.40;;;;;;4866476;29;19928;-79
2022/03/13 07:05:33;;;;;;;;;;;1.60;75.60;;;;;;4869845;29;20303;-80
2022/03/13 07:08:00;;;;;;;;;;;1.60;75.70;;;;;;4864165;29;19935;-80
2022/03/13 07:10:26;;;;;;;;;;;1.60;75.70;;;;;;4853686;29;19928;-77
2022/03/13 07:12:55;;;;;;;;;;;1.60;75.80;;;;;;4872063;29;19935;-79
2022/03/13 07:15:22;;;;;;;;;;;1.60;75.90;;;;;;4872421;29;19974;-79
2022/03/13 07:17:51;;;;;;;;;;;1.60;76.00;;;;;;4864532;29;19927;-80
2022/03/13 07:20:17;;;;;;;;;;;1.60;75.90;;;;;;4867909;29;19971;-78
2022/03/13 07:22:45;;;;;;;;;;;1.60;76.10;;;;;;4869786;29;19939;-77
2022/03/13 07:25:12;;;;;;;;;;;1.60;76.20;;;;;;4872470;29;20380;-77
2022/03/13 07:27:40;;;;;;;;;;;1.60;76.30;;;;;;4869922;29;19967;-78
2022/03/13 07:30:07;;;;;;;;;;;1.60;76.60;;;;;;4871545;29;19935;-78
2022/03/13 07:32:35;;;;;;;;;;;1.60;76.70;;;;;;4853851;29;19990;-78
2022/03/13 07:35:03;;;;;;;;;;;1.60;76.80;;;;;;4853506;29;20209;-78
2022/03/13 07:37:30;;;;;;;;;;;1.60;76.80;;;;;;4863286;29;20358;-78
2022/03/13 07:39:57;;;;;;;;;;;1.60;76.90;;;;;;4855476;29;20346;-77
2022/03/13 07:42:24;;;;;;;;;;;1.60;76.90;;;;;;4872462;29;19928;-78
2022/03/13 07:44:51;;;;;;;;;;;1.60;77.00;;;;;;4863636;29;19928;-77
2022/03/13 07:47:18;;;;;;;;;;;1.70;77.80;;;;;;4868255;29;19988;-77
2022/03/13 07:49:44;;;;;;;;;;;1.70;76.70;;;;;;4871780;29;19928;-77
2022/03/13 07:52:13;;;;;;;;;;;1.70;76.60;;;;;;4869169;29;19936;-78
2022/03/13 07:54:40;;;;;;;;;;;1.70;76.90;;;;;;4851959;29;19927;-78
2022/03/13 07:57:07;;;;;;;;;;;1.70;77.20;;;;;;4860338;29;19934;-77
2022/03/13 07:59:33;;;;;;;;;;;1.70;77.30;;;;;;4872122;29;19936;-77
2022/03/13 08:02:01;;;;;;;;;;;1.70;77.70;;;;;;4869698;29;19956;-78
2022/03/13 08:04:28;;;;;;;;;;;1.80;77.80;;;;;;4871195;29;19932;-78
2022/03/13 08:06:55;;;;;;;;;;;1.90;77.20;;;;;;4870941;29;19954;-78
2022/03/13 08:09:24;;;;;;;;;;;1.90;76.40;;;;;;4871886;29;19928;-78
2022/03/13 08:11:53;;;;;;;;;;;1.90;76.70;;;;;;4871003;29;19935;-78
2022/03/13 08:14:20;;;;;;;;;;;2.00;76.20;;;;;;4876715;29;19928;-77
2022/03/13 08:16:47;;;;;;;;;;;2.00;76.10;;;;;;4869878;29;19976;-78
2022/03/13 08:19:14;;;;;;;;;;;2.10;76.10;;;;;;4874562;29;19939;-77
2022/03/13 08:21:41;;;;;;;;;;;2.10;76.00;;;;;;4879122;29;19983;-77
2022/03/13 08:24:08;;;;;;;;;;;2.10;76.00;;;;;;4877237;29;19940;-78
2022/03/13 08:26:38;;;;;;;;;;;2.10;76.00;;;;;;4857438;29;20031;-78
2022/03/13 08:29:05;;;;;;;;;;;2.10;76.40;;;;;;4876193;29;20423;-79
2022/03/13 08:31:32;;;;;;;;;;;2.20;77.00;;;;;;4875426;29;20323;-77
2022/03/13 08:33:59;;;;;;;;;;;2.20;76.60;;;;;;4871343;29;19932;-79
2022/03/13 08:36:26;;;;;;;;;;;2.30;76.60;;;;;;4874008;29;20423;-78
2022/03/13 08:38:53;;;;;;;;;;;2.30;76.70;;;;;;4870195;29;19960;-78
2022/03/13 08:41:21;;;;;;;;;;;2.40;77.20;;;;;;4856796;29;20019;-78
2022/03/13 08:43:49;;;;;;;;;;;2.50;77.30;;;;;;4858218;29;20424;-78
2022/03/13 08:46:17;;;;;;;;;;;2.70;77.50;;;;;;4873069;29;19950;-78
2022/03/13 08:48:45;;;;;;;;;;;2.80;77.40;;;;;;4877179;29;19931;-78
2022/03/13 08:51:13;;;;;;;;;;;2.90;77.20;;;;;;4868754;29;20536;-78
2022/03/13 08:53:40;;;;;;;;;;;2.90;76.90;;;;;;4869297;29;20025;-78
2022/03/13 08:56:07;;;;;;;;;;;3.00;76.60;;;;;;4872201;29;19935;-78
2022/03/13 08:58:35;;;;;;;;;;;3.00;75.90;;;;;;4872364;29;20388;-78
2022/03/13 09:01:03;;;;;;;;;;;3.10;76.40;;;;;;4877773;29;19935;-78
2022/03/13 09:03:30;;;;;;;;;;;3.10;76.50;;;;;;4871943;29;19959;-78
2022/03/13 09:05:57;;;;;;;;;;;3.20;76.50;;;;;;4874354;29;20625;-78
2022/03/13 09:08:25;;;;;;;;;;;3.30;76.30;;;;;;4858081;29;19929;-78
2022/03/13 09:10:53;;;;;;;;;;;3.40;76.00;;;;;;4856657;29;19932;-79
2022/03/13 09:13:20;;;;;;;;;;;3.40;76.10;;;;;;4870412;29;20015;-78
2022/03/13 09:15:47;;;;;;;;;;;3.60;76.60;;;;;;4871886;29;19956;-79
2022/03/13 09:18:18;;;;;;;;;;;3.60;76.50;;;;;;4873903;29;19942;-78
2022/03/13 09:20:45;;;;;;;;;;;3.70;76.60;;;;;;4869608;29;20373;-78
2022/03/13 09:23:12;;;;;;;;;;;3.60;75.90;;;;;;4877478;29;20381;-79
2022/03/13 09:25:39;;;;;;;;;;;3.40;76.10;;;;;;4875095;29;19933;-78
2022/03/13 09:28:06;;;;;;;;;;;3.20;76.70;;;;;;4874116;29;19946;-80
2022/03/13 09:30:36;;;;;;;;;;;3.10;77.40;;;;;;4858311;29;19932;-77
2022/03/13 09:33:04;;;;;;;;;;;3.00;77.50;;;;;;4875179;29;19936;-78
2022/03/13 09:35:33;;;;;;;;;;;2.90;77.90;;;;;;4871828;29;19976;-79
2022/03/13 09:38:00;;;;;;;;;;;2.80;78.20;;;;;;4868621;29;20217;-77
2022/03/13 09:40:27;;;;;;;;;;;2.80;78.30;;;;;;4874635;29;19939;-79
2022/03/13 09:42:54;;;;;;;;;;;2.80;78.60;;;;;;4871792;29;20030;-79
2022/03/13 09:45:21;;;;;;;;;;;2.70;78.70;;;;;;4869990;29;19938;-79
2022/03/13 09:47:49;;;;;;;;;;;2.70;78.80;;;;;;4855896;29;19928;-79
2022/03/13 09:50:17;;;;;;;;;;;2.70;79.30;;;;;;4868899;29;19998;-78
2022/03/13 09:52:45;;;;;;;;;;;2.70;79.40;;;;;;4872516;29;19940;-78
2022/03/13 09:55:12;;;;;;;;;;;2.70;79.60;;;;;;4872135;29;19934;-79
2022/03/13 09:57:41;;;;;;;;;;;2.70;79.80;;;;;;4872563;29;20413;-78
2022/03/13 10:00:09;;;;;;;;;;;2.70;79.90;;;;;;4874532;29;19928;-79
2022/03/13 10:02:39;;;;;;;;;;;2.70;80.00;;;;;;4870785;29;19932;-78
2022/03/13 10:05:08;;;;;;;;;;;2.70;79.90;;;;;;4855703;29;19971;-79
2022/03/13 10:10:32;;;;;;;;;;;2.80;80.50;;;;;;5099734;27;19916;-79
2022/03/13 10:13:02;;;;;;;;;;;2.80;80.60;;;;;;5095645;28;19924;-79
2022/03/13 10:15:30;;;;;;;;;;;2.80;80.70;;;;;;5098567;28;19924;-80
2022/03/13 10:17:57;;;;;;;;;;;2.80;80.60;;;;;;5094596;28;19932;-80
2022/03/13 10:20:25;;;;;;;;;;;2.90;80.70;;;;;;5102123;28;19977;-80
2022/03/13 10:22:58;;;;;;;;;;;3.00;80.70;;;;;;5096786;28;20397;-81
2022/03/13 10:25:29;;;;;;;;;;;3.00;80.90;;;;;;5095789;28;19947;-80
2022/03/13 10:28:11;;;;;;;;;;;2.90;81.10;;;;;;5101477;28;20023;-80
2022/03/13 10:30:38;;;;;;;;;;;3.00;81.40;;;;;;5096485;28;19923;-80
2022/03/13 10:33:06;;;;;;;;;;;3.00;81.40;;;;;;5102886;28;19932;-80
2022/03/13 10:35:34;;;;;;;;;;;3.00;81.60;;;;;;5104867;28;20355;-80
2022/03/13 10:38:01;;;;;;;;;;;3.10;82.10;;;;;;5099340;28;20566;-80
2022/03/13 10:40:33;;;;;;;;;;;3.20;82.00;;;;;;5099083;28;19927;-80
2022/03/13 10:43:06;;;;;;;;;;;3.20;82.00;;;;;;5094598;28;19928;-80
2022/03/13 10:45:37;;;;;;;;;;;3.20;82.20;;;;;;5105025;28;19936;-80
2022/03/13 10:48:18;;;;;;;;;;;3.20;82.30;;;;;;5102168;28;19931;-78
2022/03/13 10:50:45;;;;;;;;;;;3.30;82.40;;;;;;5099502;28;19935;-79
2022/03/13 10:53:15;;;;;;;;;;;3.30;82.70;;;;;;5099840;28;20417;-78
2022/03/13 10:55:42;;;;;;;;;;;3.30;82.90;;;;;;5108996;28;19936;-79
2022/03/13 10:58:12;;;;;;;;;;;3.40;83.00;;;;;;5106212;28;19924;-79
2022/03/13 11:00:39;;;;;;;;;;;3.40;82.80;;;;;;5103181;28;19924;-79
2022/03/13 11:03:10;;;;;;;;;;;3.40;83.00;;;;;;5098642;28;19924;-80
2022/03/13 11:05:37;;;;;;;;;;;3.50;83.20;;;;;;5101605;28;19924;-80
2022/03/13 11:08:04;;;;;;;;;;;3.50;83.20;;;;;;5101835;28;20611;-78
2022/03/13 11:10:31;;;;;;;;;;;3.50;83.20;;;;;;5099888;28;19936;-78
2022/03/13 11:12:58;;;;;;;;;;;3.50;83.40;;;;;;5096966;28;20041;-79
2022/03/13 11:15:27;;;;;;;;;;;3.60;83.70;;;;;;5098153;28;19932;-78
2022/03/13 11:17:55;;;;;;;;;;;3.60;83.40;;;;;;5100125;28;19928;-80
2022/03/13 11:20:23;;;;;;;;;;;3.60;83.80;;;;;;5094647;28;19979;-78
2022/03/13 11:22:51;;;;;;;;;;;3.60;83.70;;;;;;5090216;28;19924;-78
2022/03/13 11:25:18;;;;;;;;;;;3.70;84.00;;;;;;5085086;28;19924;-78
2022/03/13 11:27:47;;;;;;;;;;;3.70;83.90;;;;;;5088871;28;19974;-81
2022/03/13 11:30:14;;;;;;;;;;;3.80;84.20;;;;;;5089548;28;20385;-80
2022/03/13 11:32:46;;;;;;;;;;;3.80;84.50;;;;;;5091019;28;19934;-80
2022/03/13 11:35:25;;;;;;;;;;;3.80;84.30;;;;;;5087421;28;19931;-79
2022/03/13 11:37:53;;;;;;;;;;;3.90;84.90;;;;;;5081398;28;19935;-78
2022/03/13 11:40:21;;;;;;;;;;;3.90;84.80;;;;;;5088070;28;19977;-81
2022/03/13 11:42:49;;;;;;;;;;;4.00;84.80;;;;;;5087025;28;19931;-78
2022/03/13 11:45:31;;;;;;;;;;;4.00;85.30;;;;;;5088821;28;19935;-80
2022/03/13 11:48:19;;;;;;;;;;;4.10;85.30;;;;;;5089552;28;19974;-78
2022/03/13 11:50:47;;;;;;;;;;;4.10;85.40;;;;;;5088085;28;19932;-80
2022/03/13 11:53:17;;;;;;;;;;;4.20;85.20;;;;;;5088799;28;20394;-79
2022/03/13 11:56:03;;;;;;;;;;;4.20;85.80;;;;;;5088966;28;20378;-79
2022/03/13 11:58:40;;;;;;;;;;;4.30;85.70;;;;;;5089738;28;20433;-79
2022/03/13 12:01:07;;;;;;;;;;;4.30;85.60;;;;;;5089084;28;19924;-79
2022/03/13 12:03:35;;;;;;;;;;;4.40;85.80;;;;;;5085604;28;19928;-79
2022/03/13 12:06:03;;;;;;;;;;;4.40;86.00;;;;;;5088819;28;19974;-78
2022/03/13 12:08:48;;;;;;;;;;;4.40;86.10;;;;;;5091611;28;20385;-78
2022/03/13 12:11:34;;;;;;;;;;;4.50;86.10;;;;;;5090765;28;19924;-80
2022/03/13 12:14:01;;;;;;;;;;;4.50;86.20;;;;;;5089951;28;19974;-78
2022/03/13 12:16:28;;;;;;;;;;;4.60;86.40;;;;;;5086958;28;20321;-78
2022/03/13 12:18:59;;;;;;;;;;;4.70;86.10;;;;;;5089342;28;19924;-79
2022/03/13 12:21:26;;;;;;;;;;;4.70;86.80;;;;;;5091128;28;19924;-78
2022/03/13 12:23:53;;;;;;;;;;;4.70;86.40;;;;;;5089806;28;19925;-79
2022/03/13 12:26:22;;;;;;;;;;;4.80;86.70;;;;;;5091250;28;19946;-79
2022/03/13 12:28:50;;;;;;;;;;;4.80;86.90;;;;;;5089504;28;20019;-81
2022/03/13 12:31:18;;;;;;;;;;;4.90;86.90;;;;;;5091335;28;19932;-81
2022/03/13 12:33:45;;;;;;;;;;;5.00;86.90;;;;;;5088268;28;20393;-81
2022/03/13 12:36:14;;;;;;;;;;;5.00;86.60;;;;;;5089643;28;20302;-81
2022/03/13 12:38:43;;;;;;;;;;;5.10;86.90;;;;;;5101267;28;20432;-81
2022/03/13 12:41:11;;;;;;;;;;;5.10;86.90;;;;;;5093506;28;19932;-81
2022/03/13 12:43:49;;;;;;;;;;;5.20;87.30;;;;;;5089223;28;20456;-81
2022/03/13 12:46:18;;;;;;;;;;;5.20;87.30;;;;;;5092000;28;19971;-81
2022/03/13 12:48:53;;;;;;;;;;;5.30;87.30;;;;;;5095811;28;20003;-81
2022/03/13 12:51:44;;;;;;;;;;;5.30;87.20;;;;;;5082202;28;19932;-81
2022/03/13 12:54:12;;;;;;;;;;;5.40;87.20;;;;;;5087942;28;19939;-81
2022/03/13 12:56:46;;;;;;;;;;;5.40;87.20;;;;;;5090102;28;19931;-81
2022/03/13 12:59:23;;;;;;;;;;;5.40;87.60;;;;;;5104726;28;19935;-81
2022/03/13 13:02:02;;;;;;;;;;;5.50;87.60;;;;;;5088356;28;20413;-82
2022/03/13 13:04:29;;;;;;;;;;;5.60;87.60;;;;;;5093921;28;19924;-81
2022/03/13 13:06:57;;;;;;;;;;;5.60;87.70;;;;;;5092700;28;20007;-81
2022/03/13 13:09:28;;;;;;;;;;;5.70;87.40;;;;;;5089218;28;20022;-81
2022/03/13 13:11:55;;;;;;;;;;;5.70;87.30;;;;;;5090936;28;19932;-81
2022/03/13 13:14:23;;;;;;;;;;;5.80;87.70;;;;;;5088700;28;20402;-81
2022/03/13 13:16:50;;;;;;;;;;;5.80;88.00;;;;;;5089480;28;19931;-79
2022/03/13 13:19:17;;;;;;;;;;;5.80;88.10;;;;;;5089956;28;19933;-79
2022/03/13 13:21:44;;;;;;;;;;;5.90;88.20;;;;;;5087811;28;19924;-79
2022/03/13 13:24:21;;;;;;;;;;;5.90;88.30;;;;;;5089090;28;19924;-81
2022/03/13 13:26:48;;;;;;;;;;;6.00;88.30;;;;;;5089185;28;19928;-81
2022/03/13 13:29:15;;;;;;;;;;;6.00;88.30;;;;;;5088472;28;20374;-81
2022/03/13 13:31:42;;;;;;;;;;;6.10;88.30;;;;;;5085858;28;19929;-81
2022/03/13 13:34:15;;;;;;;;;;;6.20;88.40;;;;;;5087627;28;19924;-81
2022/03/13 13:36:42;;;;;;;;;;;6.20;88.20;;;;;;5089233;28;19938;-81
2022/03/13 13:39:10;;;;;;;;;;;6.30;88.40;;;;;;5087562;28;20279;-82
2022/03/13 13:41:39;;;;;;;;;;;6.40;88.60;;;;;;5086317;28;19934;-81
2022/03/13 13:44:06;;;;;;;;;;;6.40;88.60;;;;;;5087477;28;19998;-82
2022/03/13 13:46:33;;;;;;;;;;;6.50;88.60;;;;;;5086236;28;19928;-81
2022/03/13 13:49:01;;;;;;;;;;;6.50;88.50;;;;;;5089812;28;20065;-83
2022/03/13 13:51:34;;;;;;;;;;;6.60;88.30;;;;;;5086961;28;20409;-82
2022/03/13 13:54:04;;;;;;;;;;;6.60;87.80;;;;;;5087414;28;19976;-81
2022/03/13 13:56:34;;;;;;;;;;;6.70;87.40;;;;;;5085653;28;19967;-82
2022/03/13 13:59:20;;;;;;;;;;;6.70;87.60;;;;;;5086341;28;19928;-81
2022/03/13 14:01:48;;;;;;;;;;;6.80;87.80;;;;;;5079537;28;19924;-82
2022/03/13 14:04:15;;;;;;;;;;;6.90;88.00;;;;;;5088125;28;20278;-82
2022/03/13 14:06:43;;;;;;;;;;;7.00;88.30;;;;;;5087392;28;19932;-82
2022/03/13 14:09:10;;;;;;;;;;;7.00;88.10;;;;;;5083415;28;20381;-81
2022/03/13 14:11:40;;;;;;;;;;;7.10;87.80;;;;;;5086386;28;19928;-82
2022/03/13 14:14:07;;;;;;;;;;;7.10;88.10;;;;;;5087178;28;20034;-82
2022/03/13 14:16:36;;;;;;;;;;;7.20;88.10;;;;;;5078879;28;19967;-82
2022/03/13 14:19:03;;;;;;;;;;;7.20;88.20;;;;;;5084957;28;19932;-83
2022/03/13 14:21:30;;;;;;;;;;;7.30;88.40;;;;;;5088277;28;19924;-82
2022/03/13 14:23:57;;;;;;;;;;;7.40;88.50;;;;;;5075572;28;20018;-84
2022/03/13 14:26:24;;;;;;;;;;;7.40;88.30;;;;;;5089367;28;19934;-84
2022/03/13 14:28:51;;;;;;;;;;;7.50;88.30;;;;;;5086658;28;20401;-82
2022/03/13 14:31:18;;;;;;;;;;;7.50;88.00;;;;;;5089840;28;19990;-83
2022/03/13 14:33:46;;;;;;;;;;;7.60;87.30;;;;;;5089403;28;19928;-85
2022/03/13 14:36:13;;;;;;;;;;;7.70;87.60;;;;;;5084625;28;19932;-85
2022/03/13 14:38:44;;;;;;;;;;;7.70;87.70;;;;;;5083191;28;20379;-82
2022/03/13 14:41:12;;;;;;;;;;;7.80;88.00;;;;;;5089668;28;19959;-83